Perea, New Mexico
Current Conditions -  °F | °C
As of 7:53 AM on Friday 24 Oct 2014 (Local Time) from KGUP Reporting Station
Clear Clear  
Wind Chill: 35°   Ceiling: Unl
Heat Index: 35°   Visibility: 10mi
Dew Point: 31°   Wind: 0mph
Humidity: 85%   Direction: NA
Pressure: 30.39"   Gusts: NA
Location:  35.4212°N, 108.53°W
Report Text: KGUP 241353Z AUTO 00000KT 10SM CLR 02/M01 A3039 RMK AO2 SLP236 T00171006
Loading
Personal Weather Stations






























Interactive Weather Map
Tropical Storm Tracking
New forecast layout! Learn more

10-Day Weather Forecast

Advertisements
Track Severe Weather on mobile